sensor_id;sensor_type;location;lat;lon;timestamp;P1;durP1;ratioP1;P2;durP2;ratioP2
82304;SDS011;71914;47.382;8.168;2023-11-21T00:07:06;1.80;;;0.77;;
82304;SDS011;71914;47.382;8.168;2023-11-21T00:09:32;4.35;;;0.90;;
82304;SDS011;71914;47.382;8.168;2023-11-21T00:11:57;5.05;;;1.00;;
82304;SDS011;71914;47.382;8.168;2023-11-21T00:14:24;2.60;;;0.85;;
82304;SDS011;71914;47.382;8.168;2023-11-21T00:16:51;2.00;;;0.70;;
82304;SDS011;71914;47.382;8.168;2023-11-21T00:21:42;4.57;;;0.75;;
82304;SDS011;71914;47.382;8.168;2023-11-21T00:29:02;1.20;;;0.63;;
82304;SDS011;71914;47.382;8.168;2023-11-21T00:31:27;1.35;;;0.70;;
82304;SDS011;71914;47.382;8.168;2023-11-21T00:33:54;3.05;;;0.60;;
82304;SDS011;71914;47.382;8.168;2023-11-21T00:41:10;2.10;;;0.60;;
82304;SDS011;71914;47.382;8.168;2023-11-21T00:43:36;5.15;;;0.77;;
82304;SDS011;71914;47.382;8.168;2023-11-21T00:46:03;4.20;;;0.80;;
82304;SDS011;71914;47.382;8.168;2023-11-21T00:48:29;1.58;;;0.70;;
82304;SDS011;71914;47.382;8.168;2023-11-21T00:50:56;3.67;;;1.35;;
82304;SDS011;71914;47.382;8.168;2023-11-21T00:58:12;2.70;;;0.77;;
82304;SDS011;71914;47.382;8.168;2023-11-21T01:00:38;4.43;;;0.98;;
82304;SDS011;71914;47.382;8.168;2023-11-21T01:03:04;2.75;;;0.65;;
82304;SDS011;71914;47.382;8.168;2023-11-21T01:05:30;2.95;;;0.90;;
82304;SDS011;71914;47.382;8.168;2023-11-21T01:07:57;3.25;;;0.82;;
82304;SDS011;71914;47.382;8.168;2023-11-21T01:12:48;2.17;;;0.77;;
82304;SDS011;71914;47.382;8.168;2023-11-21T01:15:14;5.10;;;0.90;;
82304;SDS011;71914;47.382;8.168;2023-11-21T01:17:39;2.42;;;0.50;;
82304;SDS011;71914;47.382;8.168;2023-11-21T01:20:06;4.63;;;1.13;;
82304;SDS011;71914;47.382;8.168;2023-11-21T01:22:36;3.03;;;0.93;;
82304;SDS011;71914;47.382;8.168;2023-11-21T01:25:03;6.50;;;1.95;;
82304;SDS011;71914;47.382;8.168;2023-11-21T01:27:32;12.85;;;5.22;;
82304;SDS011;71914;47.382;8.168;2023-11-21T01:29:57;22.25;;;8.68;;
82304;SDS011;71914;47.382;8.168;2023-11-21T01:32:23;18.02;;;8.55;;
82304;SDS011;71914;47.382;8.168;2023-11-21T01:34:50;4.25;;;1.48;;
82304;SDS011;71914;47.382;8.168;2023-11-21T01:37:16;4.05;;;1.13;;
82304;SDS011;71914;47.382;8.168;2023-11-21T01:39:42;3.05;;;0.85;;
82304;SDS011;71914;47.382;8.168;2023-11-21T01:42:10;4.78;;;0.73;;
82304;SDS011;71914;47.382;8.168;2023-11-21T01:44:37;1.20;;;0.95;;
82304;SDS011;71914;47.382;8.168;2023-11-21T01:47:04;0.98;;;0.60;;
82304;SDS011;71914;47.382;8.168;2023-11-21T01:49:31;1.60;;;0.63;;
82304;SDS011;71914;47.382;8.168;2023-11-21T01:51:58;2.05;;;0.68;;
82304;SDS011;71914;47.382;8.168;2023-11-21T01:54:24;1.52;;;0.93;;
82304;SDS011;71914;47.382;8.168;2023-11-21T01:56:50;2.63;;;0.82;;
82304;SDS011;71914;47.382;8.168;2023-11-21T01:59:18;1.95;;;0.80;;
82304;SDS011;71914;47.382;8.168;2023-11-21T02:01:48;3.92;;;0.80;;
82304;SDS011;71914;47.382;8.168;2023-11-21T02:09:06;2.15;;;0.60;;
82304;SDS011;71914;47.382;8.168;2023-11-21T02:11:31;3.65;;;0.90;;
82304;SDS011;71914;47.382;8.168;2023-11-21T02:14:00;1.70;;;0.75;;
82304;SDS011;71914;47.382;8.168;2023-11-21T02:16:27;1.38;;;0.70;;
82304;SDS011;71914;47.382;8.168;2023-11-21T02:18:56;4.80;;;0.82;;
82304;SDS011;71914;47.382;8.168;2023-11-21T02:21:22;2.42;;;0.65;;
82304;SDS011;71914;47.382;8.168;2023-11-21T02:23:51;3.70;;;0.75;;
82304;SDS011;71914;47.382;8.168;2023-11-21T02:26:16;3.03;;;0.60;;
82304;SDS011;71914;47.382;8.168;2023-11-21T02:28:42;3.50;;;1.20;;
82304;SDS011;71914;47.382;8.168;2023-11-21T02:31:08;3.85;;;1.55;;
82304;SDS011;71914;47.382;8.168;2023-11-21T02:33:33;3.90;;;0.88;;
82304;SDS011;71914;47.382;8.168;2023-11-21T02:35:59;2.88;;;0.70;;
82304;SDS011;71914;47.382;8.168;2023-11-21T02:38:24;7.25;;;1.20;;
82304;SDS011;71914;47.382;8.168;2023-11-21T02:40:51;2.28;;;0.80;;
82304;SDS011;71914;47.382;8.168;2023-11-21T02:45:42;2.63;;;1.02;;
82304;SDS011;71914;47.382;8.168;2023-11-21T02:48:08;0.98;;;0.40;;
82304;SDS011;71914;47.382;8.168;2023-11-21T02:50:34;7.03;;;0.70;;
82304;SDS011;71914;47.382;8.168;2023-11-21T02:53:00;2.13;;;1.30;;
82304;SDS011;71914;47.382;8.168;2023-11-21T02:55:26;4.60;;;0.90;;
82304;SDS011;71914;47.382;8.168;2023-11-21T02:57:53;2.15;;;0.70;;
82304;SDS011;71914;47.382;8.168;2023-11-21T03:00:18;4.13;;;0.98;;
82304;SDS011;71914;47.382;8.168;2023-11-21T03:02:44;1.83;;;0.60;;
82304;SDS011;71914;47.382;8.168;2023-11-21T03:05:10;3.90;;;0.70;;
82304;SDS011;71914;47.382;8.168;2023-11-21T03:07:36;2.70;;;1.20;;
82304;SDS011;71914;47.382;8.168;2023-11-21T03:10:02;2.15;;;0.70;;
82304;SDS011;71914;47.382;8.168;2023-11-21T03:12:29;2.50;;;0.75;;
82304;SDS011;71914;47.382;8.168;2023-11-21T03:14:56;4.00;;;0.98;;
82304;SDS011;71914;47.382;8.168;2023-11-21T03:17:21;3.80;;;0.70;;
82304;SDS011;71914;47.382;8.168;2023-11-21T03:19:47;1.27;;;0.50;;
82304;SDS011;71914;47.382;8.168;2023-11-21T03:22:12;0.95;;;0.45;;
82304;SDS011;71914;47.382;8.168;2023-11-21T03:24:38;1.85;;;0.70;;
82304;SDS011;71914;47.382;8.168;2023-11-21T03:27:04;5.07;;;0.90;;
82304;SDS011;71914;47.382;8.168;2023-11-21T03:29:29;2.13;;;0.85;;
82304;SDS011;71914;47.382;8.168;2023-11-21T03:31:56;2.63;;;0.60;;
82304;SDS011;71914;47.382;8.168;2023-11-21T03:34:23;1.88;;;0.63;;
82304;SDS011;71914;47.382;8.168;2023-11-21T03:36:50;1.10;;;0.60;;
82304;SDS011;71914;47.382;8.168;2023-11-21T03:39:15;6.20;;;1.00;;
82304;SDS011;71914;47.382;8.168;2023-11-21T03:41:41;5.15;;;0.85;;
82304;SDS011;71914;47.382;8.168;2023-11-21T03:44:06;2.08;;;1.05;;
82304;SDS011;71914;47.382;8.168;2023-11-21T03:46:32;3.03;;;0.90;;
82304;SDS011;71914;47.382;8.168;2023-11-21T03:48:59;2.95;;;1.00;;
82304;SDS011;71914;47.382;8.168;2023-11-21T03:51:24;3.47;;;0.88;;
82304;SDS011;71914;47.382;8.168;2023-11-21T03:53:50;1.63;;;0.60;;
82304;SDS011;71914;47.382;8.168;2023-11-21T03:56:15;3.55;;;0.73;;
82304;SDS011;71914;47.382;8.168;2023-11-21T03:58:41;1.88;;;0.80;;
82304;SDS011;71914;47.382;8.168;2023-11-21T04:01:06;1.52;;;0.80;;
82304;SDS011;71914;47.382;8.168;2023-11-21T04:03:32;2.15;;;0.90;;
82304;SDS011;71914;47.382;8.168;2023-11-21T04:05:59;6.07;;;1.00;;
82304;SDS011;71914;47.382;8.168;2023-11-21T04:08:26;4.80;;;0.90;;
82304;SDS011;71914;47.382;8.168;2023-11-21T04:10:51;0.93;;;0.50;;
82304;SDS011;71914;47.382;8.168;2023-11-21T04:15:43;1.15;;;0.70;;
82304;SDS011;71914;47.382;8.168;2023-11-21T04:18:09;3.08;;;0.60;;
82304;SDS011;71914;47.382;8.168;2023-11-21T04:20:35;1.05;;;0.40;;
82304;SDS011;71914;47.382;8.168;2023-11-21T04:23:02;4.53;;;0.85;;
82304;SDS011;71914;47.382;8.168;2023-11-21T04:25:28;4.22;;;0.88;;
82304;SDS011;71914;47.382;8.168;2023-11-21T04:27:54;2.92;;;0.90;;
82304;SDS011;71914;47.382;8.168;2023-11-21T04:30:19;0.60;;;0.40;;
82304;SDS011;71914;47.382;8.168;2023-11-21T04:32:45;1.98;;;0.80;;
82304;SDS011;71914;47.382;8.168;2023-11-21T04:35:11;5.88;;;0.82;;
82304;SDS011;71914;47.382;8.168;2023-11-21T04:37:37;3.20;;;0.50;;
82304;SDS011;71914;47.382;8.168;2023-11-21T04:40:04;1.00;;;0.50;;
82304;SDS011;71914;47.382;8.168;2023-11-21T04:42:33;2.05;;;0.57;;
82304;SDS011;71914;47.382;8.168;2023-11-21T04:44:59;3.97;;;0.98;;
82304;SDS011;71914;47.382;8.168;2023-11-21T04:47:24;2.88;;;0.63;;
82304;SDS011;71914;47.382;8.168;2023-11-21T04:49:50;2.13;;;0.50;;
82304;SDS011;71914;47.382;8.168;2023-11-21T04:52:15;1.63;;;0.50;;
82304;SDS011;71914;47.382;8.168;2023-11-21T04:54:41;1.65;;;0.50;;
82304;SDS011;71914;47.382;8.168;2023-11-21T04:57:09;0.70;;;0.43;;
82304;SDS011;71914;47.382;8.168;2023-11-21T05:02:00;1.23;;;0.50;;
82304;SDS011;71914;47.382;8.168;2023-11-21T05:04:26;1.65;;;0.40;;
82304;SDS011;71914;47.382;8.168;2023-11-21T05:06:52;7.53;;;0.98;;
82304;SDS011;71914;47.382;8.168;2023-11-21T05:09:17;2.00;;;0.57;;
82304;SDS011;71914;47.382;8.168;2023-11-21T05:11:43;1.40;;;0.52;;
82304;SDS011;71914;47.382;8.168;2023-11-21T05:14:10;2.15;;;0.57;;
82304;SDS011;71914;47.382;8.168;2023-11-21T05:19:01;3.03;;;0.70;;
82304;SDS011;71914;47.382;8.168;2023-11-21T05:21:27;1.92;;;0.82;;
82304;SDS011;71914;47.382;8.168;2023-11-21T05:23:54;5.07;;;0.75;;
82304;SDS011;71914;47.382;8.168;2023-11-21T05:26:20;1.90;;;0.77;;
82304;SDS011;71914;47.382;8.168;2023-11-21T05:28:45;1.17;;;0.60;;
82304;SDS011;71914;47.382;8.168;2023-11-21T05:31:12;2.50;;;1.13;;
82304;SDS011;71914;47.382;8.168;2023-11-21T05:33:38;3.35;;;0.68;;
82304;SDS011;71914;47.382;8.168;2023-11-21T05:36:03;2.42;;;0.30;;
82304;SDS011;71914;47.382;8.168;2023-11-21T05:38:29;1.02;;;0.60;;
82304;SDS011;71914;47.382;8.168;2023-11-21T05:40:55;2.55;;;0.70;;
82304;SDS011;71914;47.382;8.168;2023-11-21T05:43:20;2.05;;;0.80;;
82304;SDS011;71914;47.382;8.168;2023-11-21T05:45:46;3.53;;;0.93;;
82304;SDS011;71914;47.382;8.168;2023-11-21T05:48:13;1.30;;;0.50;;
82304;SDS011;71914;47.382;8.168;2023-11-21T05:50:39;2.17;;;0.60;;
82304;SDS011;71914;47.382;8.168;2023-11-21T05:53:04;1.85;;;0.43;;
82304;SDS011;71914;47.382;8.168;2023-11-21T05:55:30;6.63;;;0.80;;
82304;SDS011;71914;47.382;8.168;2023-11-21T05:57:56;2.00;;;0.73;;
82304;SDS011;71914;47.382;8.168;2023-11-21T06:00:21;1.08;;;0.70;;
82304;SDS011;71914;47.382;8.168;2023-11-21T06:02:47;1.73;;;0.70;;
82304;SDS011;71914;47.382;8.168;2023-11-21T06:05:17;1.25;;;0.60;;
82304;SDS011;71914;47.382;8.168;2023-11-21T06:07:43;2.13;;;0.70;;
82304;SDS011;71914;47.382;8.168;2023-11-21T06:10:10;3.60;;;1.20;;
82304;SDS011;71914;47.382;8.168;2023-11-21T06:12:37;4.97;;;1.30;;
82304;SDS011;71914;47.382;8.168;2023-11-21T06:15:05;2.35;;;1.33;;
82304;SDS011;71914;47.382;8.168;2023-11-21T06:17:33;2.50;;;1.20;;
82304;SDS011;71914;47.382;8.168;2023-11-21T06:20:01;2.60;;;1.00;;
82304;SDS011;71914;47.382;8.168;2023-11-21T06:22:30;2.95;;;1.38;;
82304;SDS011;71914;47.382;8.168;2023-11-21T06:24:55;0.80;;;0.55;;
82304;SDS011;71914;47.382;8.168;2023-11-21T06:27:21;1.85;;;1.05;;
82304;SDS011;71914;47.382;8.168;2023-11-21T06:29:47;2.55;;;1.20;;
82304;SDS011;71914;47.382;8.168;2023-11-21T06:32:12;3.33;;;2.15;;
82304;SDS011;71914;47.382;8.168;2023-11-21T06:34:38;3.15;;;1.23;;
82304;SDS011;71914;47.382;8.168;2023-11-21T06:37:04;4.32;;;1.13;;
82304;SDS011;71914;47.382;8.168;2023-11-21T06:39:31;6.32;;;1.10;;
82304;SDS011;71914;47.382;8.168;2023-11-21T06:41:56;1.33;;;0.57;;
82304;SDS011;71914;47.382;8.168;2023-11-21T06:44:22;2.08;;;1.00;;
82304;SDS011;71914;47.382;8.168;2023-11-21T06:46:48;3.65;;;0.90;;
82304;SDS011;71914;47.382;8.168;2023-11-21T06:49:14;1.55;;;1.13;;
82304;SDS011;71914;47.382;8.168;2023-11-21T06:51:39;2.45;;;0.90;;
82304;SDS011;71914;47.382;8.168;2023-11-21T06:54:05;2.58;;;0.98;;
82304;SDS011;71914;47.382;8.168;2023-11-21T06:56:32;5.20;;;1.88;;
82304;SDS011;71914;47.382;8.168;2023-11-21T06:58:58;7.40;;;2.53;;
82304;SDS011;71914;47.382;8.168;2023-11-21T07:01:23;3.65;;;2.47;;
82304;SDS011;71914;47.382;8.168;2023-11-21T07:03:49;1.90;;;1.10;;
82304;SDS011;71914;47.382;8.168;2023-11-21T07:06:15;2.03;;;1.30;;
82304;SDS011;71914;47.382;8.168;2023-11-21T07:08:42;2.50;;;1.10;;
82304;SDS011;71914;47.382;8.168;2023-11-21T07:11:07;2.97;;;1.50;;
82304;SDS011;71914;47.382;8.168;2023-11-21T07:13:34;4.68;;;1.40;;
82304;SDS011;71914;47.382;8.168;2023-11-21T07:18:25;4.70;;;1.70;;
82304;SDS011;71914;47.382;8.168;2023-11-21T07:20:51;3.65;;;1.60;;
82304;SDS011;71914;47.382;8.168;2023-11-21T07:23:17;3.00;;;1.23;;
82304;SDS011;71914;47.382;8.168;2023-11-21T07:25:42;3.38;;;1.80;;
82304;SDS011;71914;47.382;8.168;2023-11-21T07:28:08;3.40;;;1.83;;
82304;SDS011;71914;47.382;8.168;2023-11-21T07:30:35;6.68;;;1.45;;
82304;SDS011;71914;47.382;8.168;2023-11-21T07:33:00;3.42;;;1.05;;
82304;SDS011;71914;47.382;8.168;2023-11-21T07:35:26;2.00;;;1.27;;
82304;SDS011;71914;47.382;8.168;2023-11-21T07:37:51;4.47;;;1.50;;
82304;SDS011;71914;47.382;8.168;2023-11-21T07:40:17;3.83;;;1.13;;
82304;SDS011;71914;47.382;8.168;2023-11-21T07:42:42;7.32;;;2.67;;
82304;SDS011;71914;47.382;8.168;2023-11-21T07:45:08;5.22;;;2.03;;
82304;SDS011;71914;47.382;8.168;2023-11-21T07:47:35;5.82;;;1.70;;
82304;SDS011;71914;47.382;8.168;2023-11-21T07:50:01;5.95;;;2.38;;
82304;SDS011;71914;47.382;8.168;2023-11-21T07:52:28;11.65;;;3.58;;
82304;SDS011;71914;47.382;8.168;2023-11-21T07:54:53;13.50;;;4.10;;
82304;SDS011;71914;47.382;8.168;2023-11-21T07:57:19;10.45;;;4.63;;
82304;SDS011;71914;47.382;8.168;2023-11-21T07:59:44;7.28;;;4.43;;
82304;SDS011;71914;47.382;8.168;2023-11-21T08:02:10;2.72;;;1.70;;
82304;SDS011;71914;47.382;8.168;2023-11-21T08:04:37;2.78;;;1.42;;
82304;SDS011;71914;47.382;8.168;2023-11-21T08:07:02;1.50;;;1.00;;
82304;SDS011;71914;47.382;8.168;2023-11-21T08:09:28;1.38;;;0.80;;
82304;SDS011;71914;47.382;8.168;2023-11-21T08:11:54;3.55;;;0.50;;
82304;SDS011;71914;47.382;8.168;2023-11-21T08:14:19;1.48;;;1.00;;
82304;SDS011;71914;47.382;8.168;2023-11-21T08:16:45;4.00;;;1.55;;
82304;SDS011;71914;47.382;8.168;2023-11-21T08:19:11;3.67;;;1.13;;
82304;SDS011;71914;47.382;8.168;2023-11-21T08:21:38;3.20;;;1.10;;
82304;SDS011;71914;47.382;8.168;2023-11-21T08:24:04;2.15;;;1.33;;
82304;SDS011;71914;47.382;8.168;2023-11-21T08:26:30;5.55;;;2.58;;
82304;SDS011;71914;47.382;8.168;2023-11-21T08:28:56;6.55;;;3.63;;
82304;SDS011;71914;47.382;8.168;2023-11-21T08:31:25;3.50;;;2.30;;
82304;SDS011;71914;47.382;8.168;2023-11-21T08:33:51;8.70;;;2.38;;
82304;SDS011;71914;47.382;8.168;2023-11-21T08:36:16;3.20;;;1.73;;
82304;SDS011;71914;47.382;8.168;2023-11-21T08:38:43;2.58;;;1.50;;
82304;SDS011;71914;47.382;8.168;2023-11-21T08:41:09;3.15;;;1.10;;
82304;SDS011;71914;47.382;8.168;2023-11-21T08:43:36;1.17;;;0.90;;
82304;SDS011;71914;47.382;8.168;2023-11-21T08:46:04;1.48;;;0.85;;
82304;SDS011;71914;47.382;8.168;2023-11-21T08:48:30;4.50;;;1.10;;
82304;SDS011;71914;47.382;8.168;2023-11-21T08:50:56;3.10;;;0.90;;
82304;SDS011;71914;47.382;8.168;2023-11-21T08:53:21;4.03;;;1.30;;
82304;SDS011;71914;47.382;8.168;2023-11-21T08:55:48;2.53;;;1.00;;
82304;SDS011;71914;47.382;8.168;2023-11-21T08:58:15;3.05;;;1.13;;
82304;SDS011;71914;47.382;8.168;2023-11-21T09:00:41;2.38;;;0.75;;
82304;SDS011;71914;47.382;8.168;2023-11-21T09:03:06;2.25;;;1.38;;
82304;SDS011;71914;47.382;8.168;2023-11-21T09:05:34;1.60;;;1.05;;
82304;SDS011;71914;47.382;8.168;2023-11-21T09:08:03;2.90;;;0.88;;
82304;SDS011;71914;47.382;8.168;2023-11-21T09:10:29;2.70;;;0.70;;
82304;SDS011;71914;47.382;8.168;2023-11-21T09:12:56;0.90;;;0.63;;
82304;SDS011;71914;47.382;8.168;2023-11-21T09:15:22;1.35;;;0.80;;
82304;SDS011;71914;47.382;8.168;2023-11-21T09:17:47;1.15;;;0.60;;
82304;SDS011;71914;47.382;8.168;2023-11-21T09:20:13;1.40;;;1.00;;
82304;SDS011;71914;47.382;8.168;2023-11-21T09:22:40;2.72;;;0.85;;
82304;SDS011;71914;47.382;8.168;2023-11-21T09:25:05;2.65;;;0.90;;
82304;SDS011;71914;47.382;8.168;2023-11-21T09:27:33;3.35;;;0.80;;
82304;SDS011;71914;47.382;8.168;2023-11-21T09:30:00;3.80;;;0.95;;
82304;SDS011;71914;47.382;8.168;2023-11-21T09:32:26;3.30;;;0.98;;
82304;SDS011;71914;47.382;8.168;2023-11-21T09:34:51;3.70;;;0.93;;
82304;SDS011;71914;47.382;8.168;2023-11-21T09:37:17;1.33;;;0.63;;
82304;SDS011;71914;47.382;8.168;2023-11-21T09:39:44;1.83;;;0.70;;
82304;SDS011;71914;47.382;8.168;2023-11-21T09:42:10;0.95;;;0.73;;
82304;SDS011;71914;47.382;8.168;2023-11-21T09:44:41;2.28;;;0.70;;
82304;SDS011;71914;47.382;8.168;2023-11-21T09:47:13;2.78;;;0.85;;
82304;SDS011;71914;47.382;8.168;2023-11-21T09:49:41;2.22;;;0.73;;
82304;SDS011;71914;47.382;8.168;2023-11-21T09:52:12;3.10;;;1.10;;
82304;SDS011;71914;47.382;8.168;2023-11-21T09:54:47;2.65;;;0.80;;
82304;SDS011;71914;47.382;8.168;2023-11-21T09:57:14;2.90;;;0.90;;
82304;SDS011;71914;47.382;8.168;2023-11-21T09:59:40;1.70;;;0.80;;
82304;SDS011;71914;47.382;8.168;2023-11-21T10:02:07;1.95;;;1.05;;
82304;SDS011;71914;47.382;8.168;2023-11-21T10:04:39;1.65;;;0.85;;
82304;SDS011;71914;47.382;8.168;2023-11-21T10:07:05;3.70;;;1.30;;
82304;SDS011;71914;47.382;8.168;2023-11-21T10:09:34;4.00;;;1.27;;
82304;SDS011;71914;47.382;8.168;2023-11-21T10:12:00;2.08;;;1.20;;
82304;SDS011;71914;47.382;8.168;2023-11-21T10:14:28;3.38;;;1.17;;
82304;SDS011;71914;47.382;8.168;2023-11-21T10:16:55;3.30;;;1.27;;
82304;SDS011;71914;47.382;8.168;2023-11-21T10:19:22;2.35;;;0.80;;
82304;SDS011;71914;47.382;8.168;2023-11-21T10:21:50;1.75;;;0.95;;
82304;SDS011;71914;47.382;8.168;2023-11-21T10:24:16;1.42;;;0.90;;
82304;SDS011;71914;47.382;8.168;2023-11-21T10:26:43;4.70;;;1.67;;
82304;SDS011;71914;47.382;8.168;2023-11-21T10:29:10;2.38;;;1.25;;
82304;SDS011;71914;47.382;8.168;2023-11-21T10:31:41;2.17;;;0.88;;
82304;SDS011;71914;47.382;8.168;2023-11-21T10:34:13;2.50;;;0.70;;
82304;SDS011;71914;47.382;8.168;2023-11-21T10:36:40;3.90;;;0.90;;
82304;SDS011;71914;47.382;8.168;2023-11-21T10:39:08;3.72;;;1.05;;
82304;SDS011;71914;47.382;8.168;2023-11-21T10:41:34;2.22;;;0.77;;
82304;SDS011;71914;47.382;8.168;2023-11-21T10:44:00;1.40;;;0.90;;
82304;SDS011;71914;47.382;8.168;2023-11-21T10:46:26;2.58;;;1.13;;
82304;SDS011;71914;47.382;8.168;2023-11-21T10:48:52;2.60;;;0.90;;
82304;SDS011;71914;47.382;8.168;2023-11-21T10:51:20;1.42;;;0.70;;
82304;SDS011;71914;47.382;8.168;2023-11-21T10:53:46;3.05;;;0.98;;
82304;SDS011;71914;47.382;8.168;2023-11-21T10:56:14;2.35;;;1.13;;
82304;SDS011;71914;47.382;8.168;2023-11-21T10:58:44;2.25;;;0.85;;
82304;SDS011;71914;47.382;8.168;2023-11-21T11:01:10;3.05;;;1.25;;
82304;SDS011;71914;47.382;8.168;2023-11-21T11:03:39;2.05;;;0.90;;
82304;SDS011;71914;47.382;8.168;2023-11-21T11:06:06;2.90;;;1.20;;
82304;SDS011;71914;47.382;8.168;2023-11-21T11:08:36;1.50;;;1.00;;
82304;SDS011;71914;47.382;8.168;2023-11-21T11:11:03;1.55;;;1.25;;
82304;SDS011;71914;47.382;8.168;2023-11-21T11:13:30;2.92;;;1.52;;
82304;SDS011;71914;47.382;8.168;2023-11-21T11:15:57;1.02;;;0.70;;
82304;SDS011;71914;47.382;8.168;2023-11-21T11:18:25;1.80;;;1.20;;
82304;SDS011;71914;47.382;8.168;2023-11-21T11:20:51;2.08;;;1.05;;
82304;SDS011;71914;47.382;8.168;2023-11-21T11:23:26;1.65;;;1.08;;
82304;SDS011;71914;47.382;8.168;2023-11-21T11:26:07;3.38;;;1.83;;
82304;SDS011;71914;47.382;8.168;2023-11-21T11:28:44;4.07;;;2.80;;
82304;SDS011;71914;47.382;8.168;2023-11-21T11:31:21;3.58;;;2.17;;
82304;SDS011;71914;47.382;8.168;2023-11-21T11:33:57;2.33;;;1.60;;
82304;SDS011;71914;47.382;8.168;2023-11-21T11:36:29;2.13;;;1.70;;
82304;SDS011;71914;47.382;8.168;2023-11-21T11:38:59;2.30;;;1.50;;
82304;SDS011;71914;47.382;8.168;2023-11-21T11:41:27;1.13;;;0.85;;
82304;SDS011;71914;47.382;8.168;2023-11-21T11:43:56;2.08;;;1.38;;
82304;SDS011;71914;47.382;8.168;2023-11-21T11:49:05;2.13;;;1.30;;
82304;SDS011;71914;47.382;8.168;2023-11-21T11:51:30;2.40;;;1.10;;
82304;SDS011;71914;47.382;8.168;2023-11-21T11:53:56;4.20;;;1.58;;
82304;SDS011;71914;47.382;8.168;2023-11-21T11:56:22;2.55;;;0.90;;
82304;SDS011;71914;47.382;8.168;2023-11-21T11:58:53;1.08;;;0.82;;
82304;SDS011;71914;47.382;8.168;2023-11-21T12:01:21;2.78;;;1.30;;
82304;SDS011;71914;47.382;8.168;2023-11-21T12:06:50;1.95;;;1.30;;
82304;SDS011;71914;47.382;8.168;2023-11-21T12:09:17;1.23;;;0.98;;
82304;SDS011;71914;47.382;8.168;2023-11-21T12:14:09;3.83;;;1.85;;
82304;SDS011;71914;47.382;8.168;2023-11-21T12:16:36;2.60;;;1.40;;
82304;SDS011;71914;47.382;8.168;2023-11-21T12:19:02;3.22;;;1.38;;
82304;SDS011;71914;47.382;8.168;2023-11-21T12:21:28;2.40;;;1.90;;
82304;SDS011;71914;47.382;8.168;2023-11-21T12:23:55;2.70;;;1.30;;
82304;SDS011;71914;47.382;8.168;2023-11-21T12:26:22;2.88;;;1.50;;
82304;SDS011;71914;47.382;8.168;2023-11-21T12:28:51;3.35;;;1.73;;
82304;SDS011;71914;47.382;8.168;2023-11-21T12:31:17;2.53;;;1.15;;
82304;SDS011;71914;47.382;8.168;2023-11-21T12:33:44;2.15;;;1.17;;
82304;SDS011;71914;47.382;8.168;2023-11-21T12:36:10;2.00;;;1.35;;
82304;SDS011;71914;47.382;8.168;2023-11-21T12:38:36;2.25;;;1.40;;
82304;SDS011;71914;47.382;8.168;2023-11-21T12:41:01;1.80;;;1.35;;
82304;SDS011;71914;47.382;8.168;2023-11-21T12:43:27;2.63;;;1.70;;
82304;SDS011;71914;47.382;8.168;2023-11-21T12:48:29;2.83;;;1.90;;
82304;SDS011;71914;47.382;8.168;2023-11-21T12:50:58;2.30;;;1.85;;
82304;SDS011;71914;47.382;8.168;2023-11-21T12:53:25;4.65;;;2.17;;
82304;SDS011;71914;47.382;8.168;2023-11-21T12:55:51;5.53;;;1.75;;
82304;SDS011;71914;47.382;8.168;2023-11-21T12:58:20;3.83;;;1.88;;
82304;SDS011;71914;47.382;8.168;2023-11-21T13:00:50;3.25;;;1.85;;
82304;SDS011;71914;47.382;8.168;2023-11-21T13:03:16;5.03;;;3.47;;
82304;SDS011;71914;47.382;8.168;2023-11-21T13:05:44;4.35;;;2.92;;
82304;SDS011;71914;47.382;8.168;2023-11-21T13:08:13;2.25;;;1.52;;
82304;SDS011;71914;47.382;8.168;2023-11-21T13:10:39;3.05;;;1.38;;
82304;SDS011;71914;47.382;8.168;2023-11-21T13:13:07;3.05;;;1.40;;
82304;SDS011;71914;47.382;8.168;2023-11-21T13:15:34;1.15;;;0.80;;
82304;SDS011;71914;47.382;8.168;2023-11-21T13:18:03;0.88;;;0.57;;
82304;SDS011;71914;47.382;8.168;2023-11-21T13:20:29;1.95;;;1.10;;
82304;SDS011;71914;47.382;8.168;2023-11-21T13:22:55;0.90;;;0.70;;
82304;SDS011;71914;47.382;8.168;2023-11-21T13:25:27;1.30;;;1.00;;
82304;SDS011;71914;47.382;8.168;2023-11-21T13:27:53;1.58;;;0.90;;
82304;SDS011;71914;47.382;8.168;2023-11-21T13:30:19;1.60;;;1.00;;
82304;SDS011;71914;47.382;8.168;2023-11-21T13:32:51;1.80;;;1.10;;
82304;SDS011;71914;47.382;8.168;2023-11-21T13:35:17;3.40;;;1.02;;
82304;SDS011;71914;47.382;8.168;2023-11-21T13:37:48;2.15;;;1.15;;
82304;SDS011;71914;47.382;8.168;2023-11-21T13:40:17;2.17;;;1.40;;
82304;SDS011;71914;47.382;8.168;2023-11-21T13:42:48;3.67;;;1.70;;
82304;SDS011;71914;47.382;8.168;2023-11-21T13:45:18;1.45;;;0.88;;
82304;SDS011;71914;47.382;8.168;2023-11-21T13:47:45;2.33;;;1.08;;
82304;SDS011;71914;47.382;8.168;2023-11-21T13:50:11;2.30;;;1.60;;
82304;SDS011;71914;47.382;8.168;2023-11-21T13:52:42;2.53;;;1.40;;
82304;SDS011;71914;47.382;8.168;2023-11-21T13:55:07;2.58;;;1.77;;
82304;SDS011;71914;47.382;8.168;2023-11-21T13:57:39;2.65;;;2.08;;
82304;SDS011;71914;47.382;8.168;2023-11-21T14:00:07;2.10;;;1.38;;
82304;SDS011;71914;47.382;8.168;2023-11-21T14:02:42;2.03;;;1.40;;
82304;SDS011;71914;47.382;8.168;2023-11-21T14:05:08;2.60;;;1.80;;
82304;SDS011;71914;47.382;8.168;2023-11-21T14:07:34;3.25;;;1.55;;
82304;SDS011;71914;47.382;8.168;2023-11-21T14:10:05;2.55;;;1.55;;
82304;SDS011;71914;47.382;8.168;2023-11-21T14:12:39;2.67;;;1.60;;
82304;SDS011;71914;47.382;8.168;2023-11-21T14:15:09;3.65;;;1.30;;
82304;SDS011;71914;47.382;8.168;2023-11-21T14:17:37;1.38;;;1.05;;
82304;SDS011;71914;47.382;8.168;2023-11-21T14:20:05;1.92;;;1.23;;
82304;SDS011;71914;47.382;8.168;2023-11-21T14:22:32;2.78;;;1.40;;
82304;SDS011;71914;47.382;8.168;2023-11-21T14:24:57;1.48;;;1.35;;
82304;SDS011;71914;47.382;8.168;2023-11-21T14:27:25;3.45;;;1.42;;
82304;SDS011;71914;47.382;8.168;2023-11-21T14:29:52;2.70;;;1.40;;
82304;SDS011;71914;47.382;8.168;2023-11-21T14:32:19;1.73;;;1.38;;
82304;SDS011;71914;47.382;8.168;2023-11-21T14:34:44;2.35;;;1.65;;
82304;SDS011;71914;47.382;8.168;2023-11-21T14:37:12;1.38;;;1.02;;
82304;SDS011;71914;47.382;8.168;2023-11-21T14:42:09;3.65;;;1.10;;
82304;SDS011;71914;47.382;8.168;2023-11-21T14:44:35;2.65;;;1.70;;
82304;SDS011;71914;47.382;8.168;2023-11-21T14:47:05;3.60;;;1.42;;
82304;SDS011;71914;47.382;8.168;2023-11-21T14:49:39;1.77;;;1.05;;
82304;SDS011;71914;47.382;8.168;2023-11-21T14:54:57;3.33;;;1.90;;
82304;SDS011;71914;47.382;8.168;2023-11-21T14:57:42;5.95;;;3.05;;
82304;SDS011;71914;47.382;8.168;2023-11-21T15:00:14;7.45;;;4.68;;
82304;SDS011;71914;47.382;8.168;2023-11-21T15:03:00;3.65;;;2.00;;
82304;SDS011;71914;47.382;8.168;2023-11-21T15:05:28;3.70;;;2.00;;
82304;SDS011;71914;47.382;8.168;2023-11-21T15:07:54;3.92;;;2.42;;
82304;SDS011;71914;47.382;8.168;2023-11-21T15:10:22;2.67;;;2.08;;
82304;SDS011;71914;47.382;8.168;2023-11-21T15:13:02;1.65;;;1.40;;
82304;SDS011;71914;47.382;8.168;2023-11-21T15:15:28;1.52;;;1.20;;
82304;SDS011;71914;47.382;8.168;2023-11-21T15:17:55;1.63;;;1.05;;
82304;SDS011;71914;47.382;8.168;2023-11-21T15:20:21;1.92;;;1.30;;
82304;SDS011;71914;47.382;8.168;2023-11-21T15:22:49;2.28;;;1.40;;
82304;SDS011;71914;47.382;8.168;2023-11-21T15:25:15;4.13;;;2.05;;
82304;SDS011;71914;47.382;8.168;2023-11-21T15:27:41;2.33;;;1.60;;
82304;SDS011;71914;47.382;8.168;2023-11-21T15:30:07;1.85;;;1.55;;
82304;SDS011;71914;47.382;8.168;2023-11-21T15:32:33;2.95;;;1.60;;
82304;SDS011;71914;47.382;8.168;2023-11-21T15:34:59;1.70;;;1.50;;
82304;SDS011;71914;47.382;8.168;2023-11-21T15:37:24;2.75;;;1.50;;
82304;SDS011;71914;47.382;8.168;2023-11-21T15:39:54;2.15;;;1.73;;
82304;SDS011;71914;47.382;8.168;2023-11-21T15:42:19;1.90;;;1.13;;
82304;SDS011;71914;47.382;8.168;2023-11-21T15:44:45;1.52;;;1.23;;